Flight Track Log - Related Links

Times and Time Zones

All times are in EDT time to prevent confusion due to time zone crossing. See the SWA378 flight status page for this flight to view local times or setup timezone preferences in your user account.

Time Position Orientation Groundspeed Altitude Reporting Facility
EDT Latitude Longitude Course Direction KTS MPH feet Rate Location/Type
Mon 07:36:04 AM 39.2140 -76.9750 269° West 271 312 8,500  Level FlightAware ADS-B
Mon 07:36:42 AM 39.2140 -77.0440 270° West 282 325 10,300 2,000 Climbing FlightAware ADS-B
Mon 07:37:19 AM 39.2120 -77.1230 268° West 333 383 11,000 1,770 Climbing FlightAware ADS-B
Mon 07:37:43 AM 39.2000 -77.1580 246° West 336 387 12,100 3,081 Climbing FlightAware ADS-B
Mon 07:37:56 AM 39.1870 -77.1750 225° Southwest 330 380 12,900 3,000 Climbing FlightAware ADS-B
Mon 07:38:35 AM 39.1330 -77.2250 216° Southwest 340 391 14,700 2,366 Climbing FlightAware ADS-B
Mon 07:39:07 AM 39.0940 -77.2570 212° Southwest 354 407 15,700 2,060 Climbing FlightAware ADS-B
Mon 07:39:42 AM 39.0430 -77.3030 215° Southwest 363 418 17,000 2,426 Climbing FlightAware ADS-B
Mon 07:39:54 AM 39.0300 -77.3290 237° Southwest 361 415 17,600 2,903 Climbing FlightAware ADS-B
Mon 07:40:13 AM 39.0190 -77.3730 252° West 364 419 18,500 2,830 Climbing FlightAware ADS-B
Mon 07:40:47 AM 39.0060 -77.4450 257° West 354 407 20,100 2,735 Climbing FlightAware ADS-B
Mon 07:41:21 AM 38.9930 -77.5100 256° West 342 394 21,600 2,314 Climbing FlightAware ADS-B
Mon 07:41:57 AM 38.9790 -77.5830 256° West 344 396 22,800 1,629 Climbing FlightAware ADS-B
Mon 07:42:31 AM 38.9650 -77.6510 255° West 352 405 23,500 1,371 Climbing FlightAware ADS-B
Mon 07:43:07 AM 38.9510 -77.7240 256° West 357 411 24,400 1,479 Climbing FlightAware ADS-B
Mon 07:43:44 AM 38.9360 -77.8000 256° West 360 414 25,300 1,457 Climbing FlightAware ADS-B
Mon 07:44:17 AM 38.9220 -77.8690 255° West 361 415 26,100 1,391 Climbing FlightAware ADS-B
Mon 07:44:53 AM 38.9070 -77.9450 256° West 363 418 26,900 1,324 Climbing FlightAware ADS-B
Mon 07:45:25 AM 38.8940 -78.0110 256° West 367 422 27,600 1,200 Climbing FlightAware ADS-B
Mon 07:46:03 AM 38.8770 -78.0910 255° West 370 426 28,300 1,135 Climbing FlightAware ADS-B
Mon 07:46:39 AM 38.8620 -78.1680 256° West 372 428 29,000 1,114 Climbing FlightAware ADS-B
Mon 07:47:13 AM 38.8540 -78.2440 262° West 385 443 29,600 971 Climbing FlightAware ADS-B
Mon 07:47:47 AM 38.8530 -78.3200 269° West 388 447 30,100 917 Climbing FlightAware ADS-B
Mon 07:48:25 AM 38.8520 -78.4060 269° West 391 450 30,700 1,029 Climbing FlightAware ADS-B
Mon 07:48:57 AM 38.8510 -78.4810 269° West 391 450 31,300 1,059 Climbing FlightAware ADS-B
Mon 07:49:33 AM 38.8500 -78.5640 269° West 391 450 31,900 971 Climbing FlightAware ADS-B
Mon 07:50:05 AM 38.8490 -78.6350 269° West 390 449 32,400 794 Climbing FlightAware ADS-B
Mon 07:50:41 AM 38.8480 -78.7060 269° West 390 449 32,800 971 Climbing FlightAware ADS-B
Mon 07:51:13 AM 38.8470 -78.7900 269° West 389 448 33,500 1,000 Climbing FlightAware ADS-B
Mon 07:51:53 AM 38.8460 -78.8890 269° West 387 445 34,000 390 Climbing FlightAware ADS-B
Mon 07:52:30 AM 38.8440 -78.9730 268° West 388 447 34,000  Level FlightAware ADS-B
Mon 07:53:02 AM 38.8430 -79.0480 269° West 388 447 34,000  Level FlightAware ADS-B
Mon 07:53:38 AM 38.8420 -79.1310 269° West 388 447 34,000  Level FlightAware ADS-B
Mon 07:54:10 AM 38.8400 -79.2020 268° West 388 447 34,000  Level FlightAware ADS-B
Mon 07:54:47 AM 38.8390 -79.2850 269° West 388 447 34,000  Level FlightAware ADS-B
Mon 07:55:22 AM 38.8370 -79.3690 268° West 388 447 34,000  Level FlightAware ADS-B
Mon 07:55:56 AM 38.8360 -79.4450 269° West 389 448 34,000  Level FlightAware ADS-B
Mon 07:56:32 AM 38.8340 -79.5280 268° West 389 448 34,000  Level FlightAware ADS-B
Mon 07:57:09 AM 38.8320 -79.6120 268° West 390 449 34,000  Level FlightAware ADS-B
Mon 07:57:41 AM 38.8300 -79.6880 268° West 391 450 34,000  Level FlightAware ADS-B
Mon 07:58:17 AM 38.8280 -79.7700 268° West 392 451 34,000  Level FlightAware ADS-B
Mon 07:59:00 AM 38.8260 -79.8720 269° West 394 453 34,000  Level FlightAware ADS-B
Mon 07:59:37 AM 38.8240 -79.9580 268° West 395 455 34,000  Level FlightAware ADS-B
Mon 08:00:08 AM 38.8220 -80.0270 268° West 396 456 34,000  Level FlightAware ADS-B
Mon 08:00:46 AM 38.8200 -80.1190 268° West 397 457 34,000  Level FlightAware ADS-B
Mon 08:01:18 AM 38.8180 -80.1960 268° West 398 458 34,000  Level FlightAware ADS-B
Mon 08:01:54 AM 38.8160 -80.2790 268° West 398 458 34,000  Level FlightAware ADS-B
Mon 08:02:26 AM 38.8130 -80.3540 267° West 398 458 34,000  Level FlightAware ADS-B
Mon 08:03:03 AM 38.8110 -80.4420 268° West 398 458 34,000  Level FlightAware ADS-B
Mon 08:03:39 AM 38.8080 -80.5260 267° West 398 458 34,000  Level FlightAware ADS-B
Mon 08:04:15 AM 38.8060 -80.6110 268° West 398 458 34,000  Level FlightAware ADS-B
Mon 08:04:52 AM 38.8030 -80.6990 268° West 397 457 34,000  Level FlightAware ADS-B
Mon 08:05:24 AM 38.8010 -80.7730 268° West 395 455 34,000  Level FlightAware ADS-B
Mon 08:05:58 AM 38.7980 -80.8530 267° West 394 453 34,000  Level FlightAware ADS-B
Mon 08:06:33 AM 38.7960 -80.9340 268° West 394 453 34,000  Level FlightAware ADS-B
Mon 08:07:09 AM 38.7930 -81.0180 267° West 392 451 34,000  Level FlightAware ADS-B
Mon 08:07:45 AM 38.7900 -81.1020 267° West 392 451 34,000  Level FlightAware ADS-B
Mon 08:08:19 AM 38.7870 -81.1810 267° West 391 450 34,000  Level FlightAware ADS-B
Mon 08:08:53 AM 38.7840 -81.2570 267° West 390 449 34,000  Level FlightAware ADS-B
Mon 08:09:29 AM 38.7810 -81.3410 267° West 389 448 34,000  Level FlightAware ADS-B
Mon 08:10:01 AM 38.7790 -81.4160 268° West 389 448 34,000  Level FlightAware ADS-B
Mon 08:10:39 AM 38.7750 -81.5020 267° West 390 449 34,000  Level FlightAware ADS-B
Mon 08:11:15 AM 38.7720 -81.5850 267° West 394 453 34,000  Level FlightAware ADS-B
Mon 08:11:49 AM 38.7700 -81.6470 268° West 395 455 34,000  Level FlightAware ADS-B
Mon 08:12:22 AM 38.7660 -81.7380 267° West 395 455 34,000  Level FlightAware ADS-B
Mon 08:13:02 AM 38.7620 -81.8320 267° West 395 455 34,000  Level FlightAware ADS-B
Mon 08:13:32 AM 38.7590 -81.9030 267° West 396 456 34,000  Level FlightAware ADS-B
Mon 08:14:12 AM 38.7550 -81.9970 267° West 395 455 34,000  Level FlightAware ADS-B
Mon 08:14:44 AM 38.7520 -82.0730 267° West 396 456 34,000  Level FlightAware ADS-B
Mon 08:15:16 AM 38.7500 -82.1470 268° West 395 455 34,000  Level FlightAware ADS-B
Mon 08:15:56 AM 38.7460 -82.2400 267° West 394 453 34,000  Level FlightAware ADS-B
Mon 08:16:31 AM 38.7430 -82.3190 267° West 394 453 34,000  Level FlightAware ADS-B
Mon 08:17:03 AM 38.7400 -82.3970 267° West 393 452 34,000  Level FlightAware ADS-B
Mon 08:17:39 AM 38.7370 -82.4800 267° West 393 452 34,000  Level FlightAware ADS-B
Mon 08:18:15 AM 38.7330 -82.5660 267° West 393 452 34,000  Level FlightAware ADS-B
Mon 08:18:52 AM 38.7300 -82.6510 267° West 393 452 34,000  Level FlightAware ADS-B
Mon 08:19:30 AM 38.7260 -82.7360 267° West 393 452 34,000  Level FlightAware ADS-B
Mon 08:20:08 AM 38.7220 -82.8280 267° West 398 458 34,000  Level FlightAware ADS-B
Mon 08:20:40 AM 38.7190 -82.9010 267° West 398 458 34,000  Level FlightAware ADS-B
Mon 08:21:17 AM 38.7150 -82.9890 267° West 397 457 34,000  Level FlightAware ADS-B
Mon 08:21:54 AM 38.7120 -83.0750 267° West 398 458 34,000  Level FlightAware ADS-B
Mon 08:22:26 AM 38.7080 -83.1500 266° West 399 459 34,000  Level FlightAware ADS-B
Mon 08:23:02 AM 38.7040 -83.2370 267° West 403 464 34,000  Level FlightAware ADS-B
Mon 08:23:34 AM 38.7010 -83.3100 267° West 406 467 34,000  Level FlightAware ADS-B
Mon 08:24:12 AM 38.6970 -83.4010 267° West 407 468 34,000  Level FlightAware ADS-B
Mon 08:24:48 AM 38.6920 -83.4920 266° West 409 471 34,000  Level FlightAware ADS-B
Mon 08:25:20 AM 38.6880 -83.5690 266° West 410 472 34,000  Level FlightAware ADS-B
Mon 08:25:56 AM 38.6840 -83.6550 267° West 411 473 34,000  Level FlightAware ADS-B
Mon 08:26:30 AM 38.6800 -83.7400 267° West 413 475 34,000  Level FlightAware ADS-B
Mon 08:27:06 AM 38.6760 -83.8240 267° West 415 478 34,000  Level FlightAware ADS-B
Mon 08:27:42 AM 38.6710 -83.9140 266° West 417 480 34,000  Level FlightAware ADS-B
Mon 08:28:18 AM 38.6660 -84.0040 266° West 422 486 34,000  Level FlightAware ADS-B
Mon 08:28:42 AM 38.6630 -84.0640 266° West 425 489 34,000  Level FlightAware ADS-B
Mon 08:29:18 AM 38.6580 -84.1550 266° West 427 491 34,000  Level FlightAware ADS-B
Mon 08:29:56 AM 38.6530 -84.2490 266° West 430 495 34,000  Level FlightAware ADS-B
Mon 08:30:44 AM 38.6530 -84.3720 270° West 431 496 34,000  Level FlightAware ADS-B
Mon 08:31:20 AM 38.6590 -84.4630 275° West 431 496 34,000  Level FlightAware ADS-B
Mon 08:31:52 AM 38.6640 -84.5440 275° West 430 495 34,000  Level FlightAware ADS-B
Mon 08:32:28 AM 38.6690 -84.6340 274° West 431 496 34,000  Level FlightAware ADS-B
Mon 08:33:05 AM 38.6740 -84.7270 274° West 431 496 34,000  Level FlightAware ADS-B
Mon 08:33:41 AM 38.6790 -84.8190 274° West 432 497 34,000  Level FlightAware ADS-B
Mon 08:34:13 AM 38.6840 -84.8990 275° West 432 497 34,000  Level FlightAware ADS-B
Mon 08:34:48 AM 38.6890 -84.9910 274° West 432 497 34,000  Level FlightAware ADS-B
Mon 08:35:24 AM 38.6940 -85.0830 274° West 432 497 34,000  Level FlightAware ADS-B
Mon 08:35:58 AM 38.6990 -85.1700 274° West 431 496 34,000  Level FlightAware ADS-B
Mon 08:36:36 AM 38.7040 -85.2650 274° West 430 495 34,000  Level FlightAware ADS-B
Mon 08:37:06 AM 38.7070 -85.3380 273° West 429 494 34,000  Level FlightAware ADS-B
Mon 08:37:44 AM 38.7120 -85.4360 274° West 429 494 34,000  Level FlightAware ADS-B
Mon 08:38:20 AM 38.7170 -85.5270 274° West 429 494 34,000  Level FlightAware ADS-B
Mon 08:38:52 AM 38.7210 -85.6070 274° West 429 494 34,000  Level FlightAware ADS-B
Mon 08:39:28 AM 38.7250 -85.6990 273° West 430 495 34,000  Level FlightAware ADS-B
Mon 08:39:56 AM 38.7290 -85.7710 274° West 431 496 34,000  Level FlightAware ADS-B
Mon 08:40:34 AM 38.7340 -85.8660 274° West 433 498 34,000  Level FlightAware ADS-B
Mon 08:41:10 AM 38.7380 -85.9590 273° West 435 501 34,000  Level FlightAware ADS-B
Mon 08:41:42 AM 38.7420 -86.0410 274° West 438 504 34,000  Level FlightAware ADS-B
Mon 08:42:16 AM 38.7460 -86.1300 273° West 440 506 34,000  Level FlightAware ADS-B
Mon 08:42:52 AM 38.7500 -86.2270 273° West 443 510 34,000  Level FlightAware ADS-B
Mon 08:43:26 AM 38.7540 -86.3130 273° West 445 512 34,000  Level FlightAware ADS-B
Mon 08:44:02 AM 38.7580 -86.4090 273° West 446 513 34,000  Level FlightAware ADS-B
Mon 08:44:37 AM 38.7620 -86.4990 273° West 445 512 34,000  Level FlightAware ADS-B
Mon 08:45:13 AM 38.7660 -86.5920 273° West 443 510 34,000  Level FlightAware ADS-B
Mon 08:45:49 AM 38.7700 -86.6840 273° West 440 506 34,000  Level FlightAware ADS-B
Mon 08:46:25 AM 38.7730 -86.7830 272° West 437 503 34,000  Level FlightAware ADS-B
Mon 08:46:57 AM 38.7770 -86.8660 274° West 438 504 34,000  Level FlightAware ADS-B
Mon 08:47:33 AM 38.7800 -86.9590 272° West 438 504 34,000  Level FlightAware ADS-B
Mon 08:48:10 AM 38.7840 -87.0570 273° West 439 505 34,000  Level FlightAware ADS-B
Mon 08:48:41 AM 38.7870 -87.1360 273° West 439 505 34,000  Level FlightAware ADS-B
Mon 08:49:15 AM 38.7900 -87.2240 273° West 438 504 34,000  Level FlightAware ADS-B
Mon 08:49:47 AM 38.7930 -87.3080 273° West 437 503 34,000  Level FlightAware ADS-B
Mon 08:50:28 AM 38.7970 -87.4140 273° West 435 501 34,000  Level FlightAware ADS-B
Mon 08:51:05 AM 38.8000 -87.5080 272° West 434 499 34,000  Level FlightAware ADS-B
Mon 08:51:36 AM 38.8020 -87.5890 272° West 433 498 34,000  Level FlightAware ADS-B
Mon 08:52:13 AM 38.8050 -87.6820 272° West 432 497 34,000  Level FlightAware ADS-B
Mon 08:52:49 AM 38.8080 -87.7750 272° West 432 497 34,000  Level FlightAware ADS-B
Mon 08:53:21 AM 38.8110 -87.8560 273° West 432 497 34,000  Level FlightAware ADS-B
Mon 08:53:58 AM 38.8130 -87.9430 272° West 432 497 34,000  Level FlightAware ADS-B
Mon 08:54:31 AM 38.8160 -88.0340 272° West 432 497 34,000  Level FlightAware ADS-B
Mon 08:55:09 AM 38.8190 -88.1320 272° West 432 497 34,000  Level FlightAware ADS-B
Mon 08:55:45 AM 38.8210 -88.2210 272° West 434 499 34,000  Level FlightAware ADS-B
Mon 08:56:14 AM 38.8230 -88.2920 272° West 434 499 34,000  Level FlightAware ADS-B
Mon 08:56:52 AM 38.8260 -88.3960 272° West 435 501 34,000  Level FlightAware ADS-B
Mon 08:57:29 AM 38.8280 -88.4880 272° West 435 501 34,000  Level FlightAware ADS-B
Mon 08:58:02 AM 38.8300 -88.5740 272° West 436 502 34,000  Level FlightAware ADS-B
Mon 08:58:36 AM 38.8320 -88.6620 272° West 437 503 34,000  Level FlightAware ADS-B
Mon 08:59:13 AM 38.8350 -88.7550 272° West 439 505 34,000  Level FlightAware ADS-B
Mon 08:59:46 AM 38.8360 -88.8430 271° West 440 506 34,000  Level FlightAware ADS-B
Mon 09:00:28 AM 38.8390 -88.9540 272° West 442 509 34,000  Level FlightAware ADS-B
Mon 09:01:06 AM 38.8410 -89.0550 271° West 443 510 34,000  Level FlightAware ADS-B
Mon 09:01:42 AM 38.8430 -89.1480 272° West 445 512 34,000  Level FlightAware ADS-B
Mon 09:02:14 AM 38.8440 -89.2320 271° West 446 513 34,000  Level FlightAware ADS-B
Mon 09:02:51 AM 38.8460 -89.3320 272° West 447 514 34,000  Level FlightAware ADS-B
Mon 09:03:28 AM 38.8480 -89.4290 272° West 447 514 34,000  Level FlightAware ADS-B
Mon 09:04:00 AM 38.8490 -89.5140 271° West 445 512 34,000  Level FlightAware ADS-B
Mon 09:04:32 AM 38.8500 -89.5950 271° West 445 512 34,000  Level FlightAware ADS-B
Mon 09:05:13 AM 38.8520 -89.7020 271° West 444 511 34,000  Level FlightAware ADS-B
Mon 09:05:58 AM 38.8540 -89.8070 271° West 444 511 34,000  Level FlightAware ADS-B
Mon 09:06:34 AM 38.8550 -89.9170 271° West 443 510 34,000  Level FlightAware ADS-B
Mon 09:07:08 AM 38.8560 -90.0060 271° West 443 510 34,000  Level FlightAware ADS-B
Mon 09:07:39 AM 38.8570 -90.0860 271° West 443 510 34,000  Level FlightAware ADS-B
Mon 09:08:14 AM 38.8580 -90.1790 271° West 442 509 34,000  Level FlightAware ADS-B
Mon 09:08:48 AM 38.8590 -90.2660 271° West 443 510 34,000  Level FlightAware ADS-B
Mon 09:09:25 AM 38.8600 -90.3620 271° West 442 509 34,000  Level FlightAware ADS-B
Mon 09:09:56 AM 38.8600 -90.4440 270° West 442 509 34,000  Level FlightAware ADS-B
Mon 09:10:38 AM 38.8600 -90.5400 270° West 442 509 34,000  Level FlightAware ADS-B
Mon 09:11:17 AM 38.8390 -90.6490 256° West 445 512 34,000  Level FlightAware ADS-B
Mon 09:11:56 AM 38.8250 -90.7570 261° West 444 511 34,000  Level FlightAware ADS-B
Mon 09:12:26 AM 38.8160 -90.8240 260° West 444 511 34,000  Level FlightAware ADS-B
Mon 09:13:11 AM 38.8040 -90.9150 260° West 444 511 34,000  Level FlightAware ADS-B
Mon 09:13:48 AM 38.7930 -90.9970 260° West 444 511 34,000  Level FlightAware ADS-B
Mon 09:14:23 AM 38.7820 -91.0740 260° West 444 511 34,000  Level FlightAware ADS-B
Mon 09:14:57 AM 38.7720 -91.1490 260° West 444 511 34,000  Level FlightAware ADS-B
Mon 09:15:35 AM 38.7600 -91.2330 260° West 444 511 34,000  Level FlightAware ADS-B
Mon 09:15:59 AM 38.7530 -91.2860 260° West 444 511 34,000  Level FlightAware ADS-B
Mon 09:16:34 AM 38.7420 -91.3630 260° West 444 511 34,000  Level FlightAware ADS-B
Mon 09:17:11 AM 38.7310 -91.4450 260° West 444 511 34,000  Level FlightAware ADS-B
Mon 09:17:47 AM 38.7200 -91.5240 260° West 444 511 34,000  Level FlightAware ADS-B
Mon 09:18:24 AM 38.7090 -91.6060 260° West 444 511 34,000  Level FlightAware ADS-B
Mon 09:19:04 AM 38.6780 -91.8360 260° West 433 498 34,000  Level FlightAware ADS-B
Mon 09:19:47 AM 38.6620 -91.9510 260° West 433 498 34,000  Level FlightAware ADS-B
Mon 09:20:23 AM 38.6500 -92.0280 259° West 433 498 34,000  Level FlightAware ADS-B
Mon 09:20:59 AM 38.6380 -92.1050 259° West 433 498 34,000  Level FlightAware ADS-B
Mon 09:21:36 AM 38.6260 -92.1840 259° West 433 498 34,000  Level FlightAware ADS-B
Mon 09:22:13 AM 38.6080 -92.3270 261° West 437 503 34,000  Level FlightAware ADS-B
Mon 09:22:52 AM 38.5950 -92.4110 259° West 437 503 34,000  Level FlightAware ADS-B
Mon 09:23:43 AM 38.5740 -92.5550 259° West 440 506 34,000  Level FlightAware ADS-B
Mon 09:24:17 AM 38.5620 -92.6410 260° West 441 507 34,000  Level FlightAware ADS-B
Mon 09:25:01 AM 38.5440 -92.7560 259° West 442 509 34,000  Level FlightAware ADS-B
Mon 09:25:29 AM 38.5330 -92.8300 259° West 442 509 34,000  Level FlightAware ADS-B
Mon 09:26:11 AM 38.5180 -92.9310 259° West 443 510 34,000  Level FlightAware ADS-B
Mon 09:26:47 AM 38.5040 -93.0280 260° West 444 511 34,000  Level FlightAware ADS-B
Mon 09:27:23 AM 38.4900 -93.1180 259° West 445 512 34,000  Level FlightAware ADS-B
Mon 09:27:59 AM 38.4760 -93.2120 259° West 445 512 34,000  Level FlightAware ADS-B
Mon 09:28:35 AM 38.4610 -93.3050 258° West 444 511 34,000  Level FlightAware ADS-B
Mon 09:29:15 AM 38.4450 -93.4080 259° West 444 511 34,000  Level FlightAware ADS-B
Mon 09:29:47 AM 38.4320 -93.4920 259° West 443 510 34,000  Level FlightAware ADS-B
Mon 09:30:21 AM 38.4190 -93.5770 259° West 442 509 34,000  Level FlightAware ADS-B
Mon 09:30:55 AM 38.4050 -93.6620 258° West 441 507 34,000  Level FlightAware ADS-B
Mon 09:31:35 AM 38.3890 -93.7650 259° West 439 505 34,000  Level FlightAware ADS-B
Mon 09:32:08 AM 38.3760 -93.8470 259° West 438 504 34,000  Level FlightAware ADS-B
Mon 09:32:44 AM 38.3610 -93.9410 259° West 437 503 34,000  Level FlightAware ADS-B
Mon 09:33:12 AM 38.3510 -94.0070 259° West 437 503 34,000  Level FlightAware ADS-B
Mon 09:33:50 AM 38.3350 -94.1040 258° West 436 502 34,000  Level FlightAware ADS-B
Mon 09:34:29 AM 38.3190 -94.2030 258° West 435 501 34,000  Level FlightAware ADS-B
Mon 09:35:01 AM 38.3060 -94.2820 258° West 436 502 34,000  Level FlightAware ADS-B
Mon 09:35:37 AM 38.2910 -94.3740 258° West 439 505 34,000  Level FlightAware ADS-B
Mon 09:36:14 AM 38.2760 -94.4690 259° West 439 505 34,000  Level FlightAware ADS-B
Mon 09:36:45 AM 38.2700 -94.5470 264° West 437 503 34,000  Level FlightAware ADS-B
Mon 09:37:22 AM 38.2670 -94.6410 268° West 437 503 34,000  Level FlightAware ADS-B
Mon 09:37:57 AM 38.2640 -94.7330 268° West 437 503 34,000  Level FlightAware ADS-B
Mon 09:38:39 AM 38.2610 -94.8390 268° West 437 503 34,000  Level FlightAware ADS-B
Mon 09:39:13 AM 38.2580 -94.9280 268° West 436 502 34,000  Level FlightAware ADS-B
Mon 09:39:49 AM 38.2550 -95.0210 268° West 435 501 34,000  Level FlightAware ADS-B
Mon 09:40:22 AM 38.2520 -95.1000 267° West 433 498 34,000  Level FlightAware ADS-B
Mon 09:41:01 AM 38.2490 -95.2030 268° West 432 497 34,000  Level FlightAware ADS-B
Mon 09:41:37 AM 38.2450 -95.2920 267° West 430 495 34,000  Level FlightAware ADS-B
Mon 09:42:09 AM 38.2420 -95.3730 267° West 429 494 34,000  Level FlightAware ADS-B
Mon 09:42:45 AM 38.2390 -95.4660 268° West 431 496 34,000  Level FlightAware ADS-B
Mon 09:43:21 AM 38.2350 -95.5570 267° West 435 501 34,000  Level FlightAware ADS-B
Mon 09:43:53 AM 38.2320 -95.6370 267° West 436 502 34,000  Level FlightAware ADS-B
Mon 09:44:31 AM 38.2280 -95.7330 267° West 434 499 34,000  Level FlightAware ADS-B
Mon 09:45:03 AM 38.2250 -95.8170 267° West 432 497 34,000  Level FlightAware ADS-B
Mon 09:45:39 AM 38.2210 -95.9060 267° West 430 495 34,000  Level FlightAware ADS-B
Mon 09:46:17 AM 38.2170 -96.0020 267° West 428 493 34,000  Level FlightAware ADS-B
Mon 09:46:48 AM 38.2140 -96.0790 267° West 427 491 34,000  Level FlightAware ADS-B
Mon 09:47:25 AM 38.2100 -96.1740 267° West 425 489 34,000  Level FlightAware ADS-B
Mon 09:48:01 AM 38.2060 -96.2620 267° West 424 488 34,000  Level FlightAware ADS-B
Mon 09:48:33 AM 38.2020 -96.3410 266° West 424 488 34,000  Level FlightAware ADS-B
Mon 09:49:09 AM 38.1980 -96.4320 267° West 424 488 34,000  Level FlightAware ADS-B
Mon 09:49:45 AM 38.1940 -96.5210 267° West 425 489 34,000  Level FlightAware ADS-B
Mon 09:50:21 AM 38.1890 -96.6110 266° West 426 490 34,000  Level FlightAware ADS-B
Mon 09:50:53 AM 38.1860 -96.6930 267° West 426 490 34,000  Level FlightAware ADS-B
Mon 09:51:29 AM 38.1810 -96.7810 266° West 428 493 34,000  Level FlightAware ADS-B
Mon 09:52:03 AM 38.1770 -96.8670 267° West 430 495 34,000  Level FlightAware ADS-B
Mon 09:52:41 AM 38.1720 -96.9630 266° West 432 497 34,000  Level FlightAware ADS-B
Mon 09:53:17 AM 38.1670 -97.0550 266° West 434 499 34,000  Level FlightAware ADS-B
Mon 09:53:49 AM 38.1630 -97.1370 266° West 436 502 34,000  Level FlightAware ADS-B
Mon 09:54:25 AM 38.1580 -97.2280 266° West 436 502 34,000  Level FlightAware ADS-B
Mon 09:55:01 AM 38.1530 -97.3190 266° West 434 499 34,000  Level FlightAware ADS-B
Mon 09:55:31 AM 38.1490 -97.3970 266° West 433 498 34,000  Level FlightAware ADS-B
Mon 09:56:11 AM 38.1440 -97.4970 266° West 435 501 34,000  Level FlightAware ADS-B
Mon 09:56:43 AM 38.1390 -97.5780 266° West 435 501 34,000  Level FlightAware ADS-B
Mon 09:57:19 AM 38.1340 -97.6700 266° West 436 502 34,000  Level FlightAware ADS-B
Mon 09:57:55 AM 38.1280 -97.7630 265° West 436 502 34,000  Level FlightAware ADS-B
Mon 09:58:32 AM 38.1230 -97.8560 266° West 436 502 34,000  Level FlightAware ADS-B
Mon 09:59:04 AM 38.1180 -97.9370 266° West 436 502 34,000  Level FlightAware ADS-B
Mon 09:59:40 AM 38.1130 -98.0290 266° West 435 501 34,000  Level FlightAware ADS-B
Mon 10:00:14 AM 38.1070 -98.1150 265° West 434 499 34,000  Level FlightAware ADS-B
Mon 10:00:52 AM 38.1020 -98.2090 266° West 434 499 34,000  Level FlightAware ADS-B
Mon 10:01:24 AM 38.0970 -98.2920 266° West 433 498 34,000  Level FlightAware ADS-B
Mon 10:02:02 AM 38.0910 -98.3850 265° West 433 498 34,000  Level FlightAware ADS-B
Mon 10:02:30 AM 38.0860 -98.4550 265° West 433 498 34,000  Level FlightAware ADS-B
Mon 10:03:06 AM 38.0800 -98.5510 265° West 433 498 34,000  Level FlightAware ADS-B
Mon 10:03:46 AM 38.0740 -98.6500 266° West 433 498 34,000  Level FlightAware ADS-B
Mon 10:04:20 AM 38.0680 -98.7390 265° West 434 499 34,000  Level FlightAware ADS-B
Mon 10:04:56 AM 38.0620 -98.8260 265° West 434 499 34,000  Level FlightAware ADS-B
Mon 10:05:30 AM 38.0560 -98.9120 265° West 435 501 34,000  Level FlightAware ADS-B
Mon 10:06:07 AM 38.0500 -99.0070 265° West 435 501 34,000  Level FlightAware ADS-B
Mon 10:06:37 AM 38.0440 -99.0830 264° West 435 501 34,000  Level FlightAware ADS-B
Mon 10:07:12 AM 38.0380 -99.1690 265° West 436 502 34,000  Level FlightAware ADS-B
Mon 10:07:48 AM 38.0320 -99.2660 266° West 436 502 34,000  Level FlightAware ADS-B
Mon 10:08:46 AM 38.0210 -99.4010 264° West 436 502 34,000  Level FlightAware ADS-B
Mon 10:09:22 AM 38.0150 -99.4790 264° West 436 502 34,000  Level FlightAware ADS-B
Mon 10:09:59 AM 38.0080 -99.5590 264° West 436 502 34,000  Level FlightAware ADS-B
Mon 10:10:45 AM 38.0000 -99.6580 264° West 436 502 34,000  Level FlightAware ADS-B
Mon 10:11:21 AM 37.9940 -99.7360 264° West 436 502 34,000  Level FlightAware ADS-B
Mon 10:11:57 AM 37.9870 -99.8140 264° West 436 502 34,000  Level FlightAware ADS-B
Mon 10:12:33 AM 37.9810 -99.8920 264° West 436 502 34,000  Level FlightAware ADS-B
Mon 10:13:09 AM 37.9740 -99.9700 264° West 436 502 34,000  Level FlightAware ADS-B
Mon 10:13:46 AM 37.9680 -100.0500 265° West 436 502 34,000  Level FlightAware ADS-B
Mon 10:14:21 AM 37.9610 -100.1250 263° West 436 502 34,000  Level FlightAware ADS-B
Mon 10:14:58 AM 37.9550 -100.2050 265° West 436 502 34,000  Level FlightAware ADS-B
Mon 10:15:34 AM 37.9480 -100.2830 264° West 436 502 34,000  Level FlightAware ADS-B
Mon 10:16:11 AM 37.9420 -100.3630 265° West 436 502 34,000  Level FlightAware ADS-B
Mon 10:16:48 AM 37.9350 -100.4430 264° West 436 502 34,000  Level FlightAware ADS-B
Mon 10:17:24 AM 37.9280 -100.5210 264° West 436 502 34,000  Level FlightAware ADS-B
Mon 10:18:00 AM 37.9220 -100.5990 264° West 436 502 34,000  Level FlightAware ADS-B
Mon 10:19:22 AM 37.8917 -101.0164 264° West 433 498 34,000  Level Kansas City Center
Mon 10:20:22 AM 37.8792 -101.1606 264° West 434 499 34,000  Level Kansas City Center
Mon 10:21:25 AM 37.8628 -101.3261 263° West 430 495 34,000  Level Kansas City Center
Mon 10:22:27 AM 37.8492 -101.4689 263° West 430 495 34,000  Level Kansas City Center
Mon 10:23:28 AM 37.8333 -101.6356 263° West 428 493 34,000  Level Kansas City Center
Mon 10:24:31 AM 37.8189 -101.7789 263° West 429 494 34,000  Level Kansas City Center
Mon 10:25:32 AM 37.8017 -101.9461 263° West 430 495 34,000  Level Kansas City Center
Mon 10:26:37 AM 37.7872 -102.0900 263° West 432 497 34,000  Level Kansas City Center
Mon 10:27:37 AM 37.7700 -102.2586 263° West 434 499 34,000  Level Kansas City Center
Mon 10:28:41 AM 37.7558 -102.4039 263° West 435 501 34,000  Level Kansas City Center
Mon 10:29:43 AM 37.7378 -102.5728 262° West 435 501 34,000  Level Kansas City Center
Mon 10:30:45 AM 37.7217 -102.7183 262° West 437 503 34,000  Level Kansas City Center
Mon 10:31:45 AM 37.7036 -102.8894 262° West 439 505 34,000  Level Kansas City Center
Mon 10:32:46 AM 37.6872 -103.0353 262° West 440 506 34,000  Level Kansas City Center
Mon 10:34:14 AM 37.6633 -103.2639 263° West 440 506 34,000  Level Denver Center
Mon 10:35:16 AM 37.6472 -103.4092 262° West 438 504 34,000  Level Denver Center
Mon 10:36:18 AM 37.6281 -103.5792 262° West 438 504 34,000  Level Denver Center
Mon 10:37:20 AM 37.6111 -103.7242 262° West 439 505 34,000  Level Denver Center
Mon 10:38:22 AM 37.5928 -103.8922 262° West 435 501 34,000  Level Denver Center
Mon 10:39:24 AM 37.5750 -104.0311 261° West 453 521 34,000  Level Denver Center
Mon 10:40:26 AM 37.5533 -104.2067 261° West 453 521 34,000  Level Denver Center
Mon 10:41:28 AM 37.5331 -104.3742 261° West 442 509 34,000  Level Denver Center
Mon 10:42:30 AM 37.5150 -104.5203 261° West 440 506 34,000  Level Denver Center
Mon 10:43:32 AM 37.4978 -104.6667 262° West 441 507 34,000  Level Denver Center
Mon 10:44:34 AM 37.4758 -104.8369 261° West 442 509 34,000  Level Denver Center
Mon 10:45:36 AM 37.4581 -104.9842 261° West 443 510 34,000 48 Level Denver Center
Mon 10:46:38 AM 37.4358 -105.1561 261° West 445 512 34,100 726 Climbing Denver Center
Mon 10:47:40 AM 37.4136 -105.3228 261° West 447 514 35,500 919 Climbing Denver Center
Mon 10:48:42 AM 37.3953 -105.4694 261° West 445 512 36,000 242 Climbing Denver Center
Mon 10:49:44 AM 37.3719 -105.6417 260° West 448 516 36,000  Level Denver Center
Mon 10:50:58 AM 37.3525 -105.7878 261° West 445 512 36,000  Level Denver Center
Mon 10:52:00 AM 37.3078 -105.9781 254° West 444 511 36,000  Level Denver Center
Mon 10:53:03 AM 37.2714 -106.1192 252° West 445 512 36,000  Level Denver Center
Mon 10:54:05 AM 37.2297 -106.2828 252° West 442 509 36,000  Level Denver Center
Mon 10:55:18 AM 37.1942 -106.4228 252° West 441 507 36,000  Level Denver Center
Mon 10:56:21 AM 37.1464 -106.6094 252° West 440 506 36,000  Level Denver Center
Mon 10:57:23 AM 37.1092 -106.7483 251° West 441 507 36,000  Level Denver Center
Mon 10:58:25 AM 37.0664 -106.9119 252° West 444 511 36,000  Level Denver Center
Mon 10:59:27 AM 37.0297 -107.0519 252° West 444 511 36,000  Level Denver Center
Mon 11:00:29 AM 36.9867 -107.2161 252° West 446 513 36,000  Level Denver Center
Mon 11:01:43 AM 36.9497 -107.3544 252° West 441 507 36,000  Level Denver Center
Mon 11:02:46 AM 36.9003 -107.5408 252° West 443 510 36,000  Level Denver Center
Mon 11:03:48 AM 36.8564 -107.7042 251° West 445 512 36,000  Level Denver Center
Mon 11:04:50 AM 36.8178 -107.8433 251° West 443 510 36,000  Level Denver Center
Mon 11:05:52 AM 36.7800 -107.9825 251° West 443 510 36,000  Level Denver Center
Mon 11:06:54 AM 36.7389 -108.1469 253° West 444 511 36,000  Level Denver Center
Mon 11:07:56 AM 36.7136 -108.2906 258° West 446 513 36,000  Level Denver Center
Mon 11:08:57 AM 36.6867 -108.4317 257° West 441 507 36,000  Level Denver Center
Mon 11:10:12 AM 36.6567 -108.5969 257° West 439 505 36,000  Level Denver Center
Mon 11:11:14 AM 36.6208 -108.7869 257° West 443 510 36,000  Level Denver Center
Mon 11:12:17 AM 36.5889 -108.9506 256° West 440 506 36,000  Level Denver Center
Mon 11:13:19 AM 36.5614 -109.0925 256° West 442 509 36,000  Level Denver Center
Mon 11:19:39 AM 36.3730 -110.0510 256° West 449 517 36,000  Level FlightAware ADS-B
Mon 11:20:25 AM 36.3520 -110.1570 256° West 449 517 36,000  Level FlightAware ADS-B
Mon 11:20:59 AM 36.3340 -110.2480 256° West 449 517 36,000  Level FlightAware ADS-B
Mon 11:21:34 AM 36.3150 -110.3390 255° West 448 516 36,000  Level FlightAware ADS-B
Mon 11:22:12 AM 36.2960 -110.4330 256° West 448 516 36,000  Level FlightAware ADS-B
Mon 11:22:44 AM 36.2790 -110.5130 255° West 447 514 36,000  Level FlightAware ADS-B
Mon 11:23:20 AM 36.2610 -110.6040 256° West 447 514 36,000  Level FlightAware ADS-B
Mon 11:23:56 AM 36.2430 -110.6910 256° West 446 513 36,000  Level FlightAware ADS-B
Mon 11:24:32 AM 36.2240 -110.7790 255° West 444 511 36,000  Level FlightAware ADS-B
Mon 11:25:04 AM 36.2080 -110.8600 256° West 445 512 36,000 -636 Level FlightAware ADS-B
Mon 11:25:38 AM 36.1900 -110.9440 255° West 448 516 35,300 -2,027 Descending FlightAware ADS-B
Mon 11:26:18 AM 36.1700 -111.0410 256° West 449 517 33,500 -2,667 Descending FlightAware ADS-B
Mon 11:26:50 AM 36.1530 -111.1210 255° West 450 518 32,100 -2,364 Descending FlightAware ADS-B
Mon 11:27:24 AM 36.1360 -111.2020 255° West 443 510 30,900 -1,750 Descending FlightAware ADS-B
Mon 11:28:02 AM 36.1160 -111.2950 255° West 436 502 30,000 -771 Descending FlightAware ADS-B
Mon 11:28:34 AM 36.0990 -111.3770 256° West 443 510 30,000  Level FlightAware ADS-B
Mon 11:29:10 AM 36.0820 -111.4620 256° West 444 511 30,000  Level FlightAware ADS-B
Mon 11:29:47 AM 36.0680 -111.5540 259° West 445 512 30,000  Level FlightAware ADS-B
Mon 11:30:22 AM 36.0540 -111.6410 259° West 445 512 30,000  Level FlightAware ADS-B
Mon 11:30:54 AM 36.0420 -111.7220 260° West 444 511 30,000  Level FlightAware ADS-B
Mon 11:31:30 AM 36.0280 -111.8120 259° West 444 511 30,000 -417 Level FlightAware ADS-B
Mon 11:32:06 AM 36.0140 -111.9030 259° West 443 510 29,500 -882 Descending FlightAware ADS-B
Mon 11:32:38 AM 36.0020 -111.9810 259° West 436 502 29,000 -1,000 Descending FlightAware ADS-B
Mon 11:33:12 AM 35.9890 -112.0600 259° West 433 498 28,400 -1,054 Descending FlightAware ADS-B
Mon 11:33:52 AM 35.9730 -112.1610 259° West 432 497 27,700 -1,040 Descending FlightAware ADS-B
Mon 11:34:27 AM 35.9600 -112.2440 259° West 428 493 27,100 -1,075 Descending FlightAware ADS-B
Mon 11:34:59 AM 35.9480 -112.3210 259° West 421 484 26,500 -1,029 Descending FlightAware ADS-B
Mon 11:35:37 AM 35.9330 -112.4100 258° West 416 479 25,900 -943 Descending FlightAware ADS-B
Mon 11:36:09 AM 35.9210 -112.4840 259° West 414 476 25,400 -1,059 Descending FlightAware ADS-B
Mon 11:36:45 AM 35.9080 -112.5690 259° West 415 478 24,700 -1,054 Descending FlightAware ADS-B
Mon 11:37:23 AM 35.8930 -112.6560 258° West 411 473 24,100 -943 Descending FlightAware ADS-B
Mon 11:37:55 AM 35.8820 -112.7280 259° West 405 466 23,600 -971 Descending FlightAware ADS-B
Mon 11:38:31 AM 35.8680 -112.8090 258° West 399 459 23,000 -1,054 Descending FlightAware ADS-B
Mon 11:39:09 AM 35.8550 -112.8930 259° West 394 453 22,300 -1,026 Descending FlightAware ADS-B
Mon 11:39:47 AM 35.8410 -112.9760 258° West 393 452 21,700 -935 Descending FlightAware ADS-B
Mon 11:40:26 AM 35.8270 -113.0580 258° West 386 444 21,100 -986 Descending FlightAware ADS-B
Mon 11:41:00 AM 35.8150 -113.1320 259° West 380 437 20,500 -1,015 Descending FlightAware ADS-B
Mon 11:41:31 AM 35.8040 -113.1980 258° West 375 432 20,000 -448 Descending FlightAware ADS-B
Mon 11:42:07 AM 35.7910 -113.2720 258° West 371 427 20,000  Level FlightAware ADS-B
Mon 11:42:43 AM 35.7790 -113.3490 259° West 372 428 20,000  Level FlightAware ADS-B
Mon 11:43:16 AM 35.7670 -113.4160 258° West 374 430 20,000  Level FlightAware ADS-B
Mon 11:44:01 AM 35.7510 -113.5110 258° West 374 430 20,000  Level FlightAware ADS-B
Mon 11:44:37 AM 35.7380 -113.5860 258° West 374 430 20,000  Level FlightAware ADS-B
Mon 11:45:13 AM 35.7250 -113.6610 258° West 374 430 20,000  Level FlightAware ADS-B
Mon 11:45:45 AM 35.7140 -113.7270 258° West 373 429 20,000 -182 Level FlightAware ADS-B
Mon 11:46:19 AM 35.7020 -113.7980 258° West 368 423 19,800 -1,000 Descending FlightAware ADS-B
Mon 11:46:51 AM 35.6910 -113.8610 258° West 359 413 18,900 -1,652 Descending FlightAware ADS-B
Mon 11:47:28 AM 35.6820 -113.9350 262° West 355 409 17,900 -1,667 Descending FlightAware ADS-B
Mon 11:48:03 AM 35.6900 -114.0040 278° West 357 411 16,900 -1,808 Descending FlightAware ADS-B
Mon 11:48:41 AM 35.7000 -114.0790 279° West 358 412 15,700 -1,973 Descending FlightAware ADS-B
Mon 11:49:16 AM 35.7110 -114.1520 281° West 362 417 14,500 -1,913 Descending FlightAware ADS-B
Mon 11:49:50 AM 35.7200 -114.2210 279° West 358 412 13,500 -1,853 Descending FlightAware ADS-B
Mon 11:50:24 AM 35.7300 -114.2900 280° West 351 404 12,400 -1,013 Descending FlightAware ADS-B
Mon 11:51:07 AM 35.7390 -114.3630 279° West 341 392 12,200 -526 Descending FlightAware ADS-B
Mon 11:51:21 AM 35.7580 -114.3870 314° West 318 366 11,900 -600 Descending FlightAware ADS-B
Mon 11:51:37 AM 35.7790 -114.4010 332° Northwest 318 366 11,900  Level FlightAware ADS-B
Mon 11:52:09 AM 35.8220 -114.4210 339° North 314 361 11,900 -176 Level FlightAware ADS-B
Mon 11:52:45 AM 35.8720 -114.4440 340° North 309 356 11,700 -833 Descending FlightAware ADS-B
Mon 11:53:21 AM 35.9190 -114.4660 339° North 303 349 10,900 -1,200 Descending FlightAware ADS-B
Mon 11:53:35 AM 35.9390 -114.4710 349° North 301 346 10,700 -522 Descending FlightAware ADS-B
Mon 11:54:07 AM 35.9820 -114.4770 354° North 281 323 10,500 -537 Descending FlightAware ADS-B
Mon 11:54:42 AM 36.0260 -114.4830 354° North 267 307 10,100 -329 Descending FlightAware ADS-B
Mon 11:55:20 AM 36.0650 -114.4890 353° North 267 307 10,100  Level FlightAware ADS-B
Mon 11:55:59 AM 36.1060 -114.4950 353° North 267 307 10,100 -1,291 Level FlightAware ADS-B
Mon 11:56:39 AM 36.0680 -114.6200 249° West 241 277 8,400 -2,036 Descending FlightAware ADS-B
Mon 11:56:55 AM 36.0690 -114.6420 273° West 240 276 8,200 -750 Descending FlightAware ADS-B
Mon 11:57:19 AM 36.0710 -114.6740 274° West 232 267 7,900 -400 Descending FlightAware ADS-B
Mon 11:57:40 AM 36.0720 -114.6990 273° West 212 244 7,900  Level FlightAware ADS-B
Mon 11:57:58 AM 36.0730 -114.7210 273° West 206 237 7,900 -140 Level FlightAware ADS-B
Mon 11:58:23 AM 36.0730 -114.7500 270° West 205 236 7,800 -522 Descending FlightAware ADS-B
Mon 11:58:44 AM 36.0730 -114.7750 270° West 203 234 7,500 -857 Descending FlightAware ADS-B
Mon 11:59:12 AM 36.0730 -114.8070 270° West 201 231 7,100 -947 Descending FlightAware ADS-B
Mon 11:59:22 AM 36.0730 -114.8190 270° West 201 231 6,900 -1,000 Descending FlightAware ADS-B
Mon 11:59:48 AM 36.0730 -114.8490 270° West 199 229 6,500 -818 Descending FlightAware ADS-B
Mon 12:00:06 PM 36.0730 -114.8690 270° West 190 219 6,300 -833 Descending FlightAware ADS-B
Mon 12:00:24 PM 36.0740 -114.8860 274° West 193 222 6,000 -1,227 Descending FlightAware ADS-B
Mon 12:00:50 PM 36.0740 -114.9170 270° West 202 232 5,400 -1,286 Descending FlightAware ADS-B
Mon 12:01:06 PM 36.0740 -114.9320 270° West 205 236 5,100 -1,235 Descending FlightAware ADS-B
Mon 12:01:24 PM 36.0740 -114.9570 270° West 197 227 4,700 -1,350 Descending FlightAware ADS-B
Mon 12:01:46 PM 36.0730 -114.9810 267° West 192 221 4,200 -1,263 Descending FlightAware ADS-B
Mon 12:02:02 PM 36.0740 -114.9990 274° West 185 213 3,900 -900 Descending FlightAware ADS-B
Mon 12:02:26 PM 36.0740 -115.0240 270° West 174 200 3,600 -894 Descending FlightAware ADS-B
Mon 12:02:49 PM 36.0740 -115.0450 270° West 167 192 3,200 -955 Descending FlightAware ADS-B
Mon 12:03:10 PM 36.0740 -115.0640 270° West 165 190 2,900 -750 Descending FlightAware ADS-B
Mon 12:03:29 PM 36.0740 -115.0830 270° West 161 185 2,700 -878 Descending FlightAware ADS-B
Mon 12:03:51 PM 36.0740 -115.1040 270° West 158 182 2,300 -878 Descending FlightAware ADS-B
Mon 12:04:10 PM 36.0740 -115.1170 270° West 157 181 2,100 -632 Descending FlightAware ADS-B
Mon 12:04:32 PM 36.0740 -115.1390 270° West 135 155 -5,727 Descending FlightAware ADS-B
Mon 12:05:07 PM 36.0740 -115.1580 270° West 115 132  Level FlightAware ADS-B
Mon 12:11:00 PM 36.0667 -115.1500 270° West  Level FlightAware Approximate
Mon 12:12:00 PM 36.0801 -115.1523 270° West  Level Estimated

Login

Don't have an account? Register now (free) for customized features, flight alerts, and more!